Time;durP1;ratioP1;P1;durP2;ratioP2;P2;SDS_P1;SDS_P2;PMS_P1;PMS_P2;Temp;Humidity;BMP_temperature;BMP_pressure;BME280_temperature;BME280_humidity;BME280_pressure;Samples;Min_cycle;Max_cycle;Signal;HPM_P1;HPM_P2
2023/10/27 00:00:55;;;;;;;23.80;15.82;;;9.30;99.90;;;;;;4978517;28;20027;-77
2023/10/27 00:03:20;;;;;;;23.00;15.85;;;9.30;99.90;;;;;;4962603;28;20573;-78
2023/10/27 00:05:46;;;;;;;22.70;14.95;;;9.20;99.90;;;;;;4974220;28;20550;-78
2023/10/27 00:08:13;;;;;;;28.35;15.43;;;9.20;99.90;;;;;;4960764;28;20041;-78
2023/10/27 00:10:39;;;;;;;26.00;15.50;;;9.30;99.90;;;;;;4942557;28;20030;-78
2023/10/27 00:13:04;;;;;;;24.52;14.73;;;9.20;99.90;;;;;;4976010;28;20034;-79
2023/10/27 00:15:30;;;;;;;29.25;17.00;;;9.10;99.90;;;;;;4979990;28;20157;-77
2023/10/27 00:17:58;;;;;;;28.15;15.38;;;9.10;99.90;;;;;;4979132;28;20104;-78
2023/10/27 00:20:27;;;;;;;24.27;14.90;;;9.00;99.90;;;;;;4972470;28;20671;-77
2023/10/27 00:22:52;;;;;;;29.77;16.15;;;9.00;99.90;;;;;;4974406;28;20042;-78
2023/10/27 00:25:18;;;;;;;28.02;15.98;;;9.00;99.90;;;;;;4961143;28;20545;-77
2023/10/27 00:27:43;;;;;;;23.10;12.73;;;8.90;99.90;;;;;;4970746;28;20487;-78
2023/10/27 00:30:09;;;;;;;118.18;17.92;;;9.00;99.90;;;;;;4956515;28;22041;-77
2023/10/27 00:32:37;;;;;;;52.80;15.65;;;9.10;99.90;;;;;;4973734;28;20035;-78
2023/10/27 00:35:06;;;;;;;31.15;14.80;;;9.10;99.90;;;;;;4978981;28;20107;-78
2023/10/27 00:37:33;;;;;;;19.77;12.02;;;9.10;99.90;;;;;;4957541;28;20093;-78
2023/10/27 00:39:59;;;;;;;25.95;15.65;;;9.00;99.90;;;;;;4956987;28;20041;-78
2023/10/27 00:42:25;;;;;;;27.10;14.85;;;9.10;99.90;;;;;;4977760;28;20039;-78
2023/10/27 00:44:51;;;;;;;30.15;16.35;;;9.10;99.90;;;;;;4976214;28;20164;-78
2023/10/27 00:47:16;;;;;;;25.35;15.75;;;9.10;99.90;;;;;;4976091;28;20792;-77
2023/10/27 00:49:42;;;;;;;25.02;15.68;;;9.20;99.90;;;;;;4960246;28;20087;-77
2023/10/27 00:52:07;;;;;;;29.52;15.70;;;9.20;99.90;;;;;;4975199;28;20423;-78
2023/10/27 00:54:33;;;;;;;25.45;17.52;;;9.20;99.90;;;;;;4974989;28;20066;-78
2023/10/27 00:56:59;;;;;;;23.88;14.23;;;9.30;99.90;;;;;;4970437;28;20031;-78
2023/10/27 00:59:24;;;;;;;20.67;12.82;;;9.20;99.90;;;;;;4959948;28;20680;-79
2023/10/27 01:01:50;;;;;;;20.08;13.35;;;9.30;99.90;;;;;;4976461;28;20474;-78
2023/10/27 01:04:16;;;;;;;22.52;14.25;;;9.40;99.90;;;;;;4977410;28;20549;-78
2023/10/27 01:06:41;;;;;;;24.27;14.38;;;9.40;99.90;;;;;;4973665;28;20031;-77
2023/10/27 01:09:07;;;;;;;21.08;14.55;;;9.40;99.90;;;;;;4973483;28;20410;-78
2023/10/27 01:11:34;;;;;;;19.30;12.82;;;9.40;99.90;;;;;;4971727;28;20491;-78
2023/10/27 01:14:01;;;;;;;28.55;16.58;;;9.40;99.90;;;;;;4972021;28;20494;-78
2023/10/27 01:16:26;;;;;;;27.40;16.48;;;9.40;99.90;;;;;;4975066;28;20034;-77
2023/10/27 01:18:53;;;;;;;21.90;12.15;;;9.40;99.90;;;;;;4961338;28;20084;-78
2023/10/27 01:21:18;;;;;;;21.63;12.40;;;9.50;99.90;;;;;;4994216;28;20512;-79
2023/10/27 01:23:44;;;;;;;21.27;13.32;;;9.50;99.90;;;;;;4976444;28;20034;-77
2023/10/27 01:26:09;;;;;;;15.85;10.65;;;9.50;99.90;;;;;;4978904;28;20170;-79
2023/10/27 01:28:35;;;;;;;19.77;12.90;;;9.50;99.90;;;;;;4955158;28;20122;-77
2023/10/27 01:31:00;;;;;;;19.67;11.45;;;9.50;99.90;;;;;;4973975;28;20049;-78
2023/10/27 01:33:26;;;;;;;25.00;13.43;;;9.50;99.90;;;;;;4991335;28;20030;-78
2023/10/27 01:35:52;;;;;;;23.13;11.23;;;9.50;99.90;;;;;;4961461;28;20041;-78
2023/10/27 01:38:17;;;;;;;17.00;10.77;;;9.60;99.90;;;;;;4975774;28;20671;-77
2023/10/27 01:40:43;;;;;;;29.92;14.30;;;9.60;99.90;;;;;;4967112;28;20034;-77
2023/10/27 01:43:08;;;;;;;21.65;14.00;;;9.60;99.90;;;;;;4959749;28;20089;-78
2023/10/27 01:45:34;;;;;;;14.73;9.90;;;9.60;99.90;;;;;;4958223;28;20034;-78
2023/10/27 01:48:00;;;;;;;17.65;10.20;;;9.70;99.90;;;;;;4958796;28;20125;-77
2023/10/27 01:50:28;;;;;;;20.75;10.27;;;9.70;99.90;;;;;;4957609;28;20029;-78
2023/10/27 01:52:54;;;;;;;14.38;9.45;;;9.80;99.90;;;;;;4972616;28;20042;-79
2023/10/27 01:55:19;;;;;;;21.80;10.75;;;9.90;99.90;;;;;;4974620;28;20082;-78
2023/10/27 01:57:45;;;;;;;15.13;8.13;;;9.90;99.90;;;;;;4958640;28;20443;-77
2023/10/27 02:00:11;;;;;;;11.70;7.45;;;9.80;99.90;;;;;;4977340;28;20034;-78
2023/10/27 02:02:37;;;;;;;14.35;8.38;;;9.90;99.90;;;;;;4975122;28;20026;-78
2023/10/27 02:05:03;;;;;;;9.68;7.60;;;9.90;99.90;;;;;;4975681;28;20514;-78
2023/10/27 02:07:29;;;;;;;15.10;8.27;;;9.90;99.90;;;;;;4959091;28;20058;-78
2023/10/27 02:09:59;;;;;;;18.15;8.98;;;9.90;99.90;;;;;;4958447;28;20470;-77
2023/10/27 02:12:27;;;;;;;15.25;8.48;;;9.90;99.90;;;;;;4961361;28;20708;-78
2023/10/27 02:14:53;;;;;;;13.05;6.95;;;10.00;99.90;;;;;;4955958;28;20034;-77
2023/10/27 02:17:18;;;;;;;15.85;6.40;;;10.00;99.90;;;;;;4972807;28;20049;-78
2023/10/27 02:19:44;;;;;;;19.60;6.57;;;10.00;99.90;;;;;;4956898;28;20062;-78
2023/10/27 02:22:10;;;;;;;16.65;8.23;;;10.00;99.90;;;;;;4973224;28;20046;-78
2023/10/27 02:24:37;;;;;;;20.60;7.78;;;10.00;99.90;;;;;;4971322;28;20044;-77
2023/10/27 02:27:03;;;;;;;16.98;7.55;;;10.00;99.90;;;;;;4961328;28;20050;-77
2023/10/27 02:29:28;;;;;;;11.23;6.47;;;10.10;99.90;;;;;;4973018;28;20087;-78
2023/10/27 02:31:55;;;;;;;13.10;6.53;;;10.00;99.90;;;;;;4973619;28;20072;-78
2023/10/27 02:34:21;;;;;;;12.80;6.82;;;10.10;99.90;;;;;;4967251;28;20045;-78
2023/10/27 02:36:46;;;;;;;13.07;5.43;;;10.10;99.90;;;;;;4976930;28;20030;-77
2023/10/27 02:39:12;;;;;;;17.23;6.32;;;10.10;99.90;;;;;;4972773;28;20026;-77
2023/10/27 02:41:38;;;;;;;16.08;5.85;;;10.10;99.90;;;;;;4970389;28;20117;-78
2023/10/27 02:44:03;;;;;;;19.35;6.63;;;10.10;99.90;;;;;;4972783;28;20380;-77
2023/10/27 02:46:29;;;;;;;13.88;7.10;;;10.10;99.90;;;;;;4957409;28;20418;-78
2023/10/27 02:48:55;;;;;;;12.20;5.38;;;10.10;99.90;;;;;;4973445;28;20038;-77
2023/10/27 02:51:21;;;;;;;14.30;6.38;;;10.10;99.90;;;;;;4962392;28;20066;-77
2023/10/27 02:53:47;;;;;;;15.23;6.80;;;10.10;99.90;;;;;;4978443;28;20438;-77
2023/10/27 02:56:12;;;;;;;16.95;7.38;;;10.10;99.90;;;;;;4976678;28;20092;-77
2023/10/27 02:58:38;;;;;;;7.75;5.68;;;10.10;99.90;;;;;;4963558;28;20084;-77
2023/10/27 03:01:10;;;;;;;15.48;6.68;;;10.00;99.90;;;;;;4960074;28;20062;-77
2023/10/27 03:03:36;;;;;;;17.10;7.38;;;10.00;99.90;;;;;;4968369;28;20335;-77
2023/10/27 03:06:02;;;;;;;12.68;6.95;;;10.00;99.90;;;;;;4973775;28;20039;-77
2023/10/27 03:08:28;;;;;;;11.15;5.82;;;10.00;99.90;;;;;;4993918;28;20081;-78
2023/10/27 03:10:53;;;;;;;18.08;6.72;;;10.10;99.90;;;;;;4978167;28;20038;-78
2023/10/27 03:13:19;;;;;;;12.98;6.57;;;10.00;99.90;;;;;;4977312;28;20065;-78
2023/10/27 03:15:46;;;;;;;11.93;5.80;;;10.00;99.90;;;;;;4981011;28;20026;-77
2023/10/27 03:18:12;;;;;;;19.38;6.13;;;10.00;99.90;;;;;;4959491;28;20046;-74
2023/10/27 03:20:37;;;;;;;25.48;6.25;;;10.00;99.90;;;;;;4958274;28;20069;-77
2023/10/27 03:23:03;;;;;;;10.82;5.18;;;9.80;99.90;;;;;;4977534;28;20038;-78
2023/10/27 03:25:28;;;;;;;8.63;4.32;;;10.00;99.90;;;;;;4961136;28;20411;-78
2023/10/27 03:27:54;;;;;;;13.52;4.68;;;10.00;99.90;;;;;;4961356;28;20064;-78
2023/10/27 03:30:19;;;;;;;15.02;5.57;;;9.90;99.90;;;;;;4978031;28;20023;-77
2023/10/27 03:32:46;;;;;;;12.57;5.82;;;9.90;99.90;;;;;;4996343;28;20051;-77
2023/10/27 03:35:11;;;;;;;22.00;7.15;;;9.90;99.90;;;;;;4974785;28;20045;-77
2023/10/27 03:37:37;;;;;;;18.05;6.55;;;9.90;99.90;;;;;;4978702;28;20625;-77
2023/10/27 03:40:04;;;;;;;15.38;6.00;;;9.80;99.90;;;;;;4976461;28;20652;-78
2023/10/27 03:42:30;;;;;;;15.95;5.97;;;9.90;99.90;;;;;;4976166;28;20060;-77
2023/10/27 03:44:55;;;;;;;9.52;4.97;;;9.80;99.90;;;;;;4979775;28;20049;-77
2023/10/27 03:47:23;;;;;;;13.75;5.22;;;9.80;99.90;;;;;;4971022;28;20099;-77
2023/10/27 03:49:48;;;;;;;14.23;4.60;;;9.80;99.90;;;;;;4961458;28;20116;-78
2023/10/27 03:52:15;;;;;;;12.25;4.82;;;9.80;99.90;;;;;;4971669;28;20060;-77
2023/10/27 03:54:41;;;;;;;15.73;5.68;;;9.80;99.90;;;;;;4971274;28;20476;-77
2023/10/27 03:57:07;;;;;;;7.03;3.65;;;9.80;99.90;;;;;;4965919;28;20125;-77
2023/10/27 03:59:32;;;;;;;11.05;4.28;;;9.80;99.90;;;;;;4979299;28;20038;-78
2023/10/27 04:01:58;;;;;;;6.40;3.90;;;9.80;99.90;;;;;;4976922;28;20042;-77
2023/10/27 04:04:24;;;;;;;14.45;5.82;;;9.80;99.90;;;;;;4977642;28;20034;-77
2023/10/27 04:06:49;;;;;;;7.85;3.53;;;9.80;99.90;;;;;;4999757;28;20490;-77
2023/10/27 04:09:15;;;;;;;12.15;3.97;;;9.80;99.90;;;;;;4975583;28;20518;-76
2023/10/27 04:11:40;;;;;;;10.38;4.32;;;9.80;99.90;;;;;;4960933;28;20038;-76
2023/10/27 04:14:06;;;;;;;6.63;3.67;;;9.80;99.90;;;;;;4976220;28;20037;-76
2023/10/27 04:16:32;;;;;;;9.07;4.65;;;9.80;99.90;;;;;;4975151;28;20036;-76
2023/10/27 04:18:58;;;;;;;15.02;4.82;;;9.70;99.90;;;;;;4981975;28;20065;-77
2023/10/27 04:21:23;;;;;;;16.08;5.43;;;9.70;99.90;;;;;;4974930;28;20698;-76
2023/10/27 04:23:49;;;;;;;21.75;6.18;;;9.70;99.90;;;;;;4978888;28;20888;-76
2023/10/27 04:26:15;;;;;;;17.63;5.60;;;9.70;99.90;;;;;;4980367;28;20054;-76
2023/10/27 04:28:42;;;;;;;9.68;4.53;;;9.60;99.90;;;;;;4960786;28;20491;-76
2023/10/27 04:31:08;;;;;;;6.78;3.88;;;9.60;99.90;;;;;;4976949;28;20049;-76
2023/10/27 04:33:37;;;;;;;24.83;7.10;;;9.70;99.90;;;;;;4978852;28;20137;-76
2023/10/27 04:36:05;;;;;;;15.63;5.63;;;9.60;99.90;;;;;;4974258;28;20114;-76
2023/10/27 04:38:31;;;;;;;16.17;3.97;;;9.60;99.90;;;;;;4978654;28;20045;-77
2023/10/27 04:40:56;;;;;;;10.30;4.05;;;9.60;99.90;;;;;;4980848;28;20022;-73
2023/10/27 04:43:22;;;;;;;8.13;3.75;;;9.60;99.90;;;;;;4975174;28;20050;-77
2023/10/27 04:45:48;;;;;;;10.70;5.15;;;9.60;99.90;;;;;;4975381;28;20026;-76
2023/10/27 04:48:13;;;;;;;15.77;5.57;;;9.60;99.90;;;;;;4976994;28;20030;-77
2023/10/27 04:50:39;;;;;;;16.17;5.80;;;9.60;99.90;;;;;;4975521;28;20041;-76
2023/10/27 04:53:05;;;;;;;12.70;5.05;;;9.60;99.90;;;;;;4959019;28;20094;-77
2023/10/27 04:55:30;;;;;;;17.00;5.03;;;9.50;99.90;;;;;;4975195;28;20031;-76
2023/10/27 04:57:56;;;;;;;15.38;5.40;;;9.50;99.90;;;;;;4977278;28;20034;-76
2023/10/27 05:00:21;;;;;;;15.80;5.65;;;9.50;99.90;;;;;;4971490;28;20411;-75
2023/10/27 05:02:47;;;;;;;17.80;5.85;;;9.50;99.90;;;;;;4974601;28;20404;-76
2023/10/27 05:05:13;;;;;;;20.88;6.72;;;9.50;99.90;;;;;;4978033;28;20026;-76
2023/10/27 05:07:38;;;;;;;22.50;7.30;;;9.50;99.90;;;;;;4974062;28;20042;-77
2023/10/27 05:10:07;;;;;;;18.15;6.47;;;9.50;99.90;;;;;;4960052;28;20246;-76
2023/10/27 05:12:36;;;;;;;20.60;7.72;;;9.50;99.90;;;;;;4974089;28;20097;-76
2023/10/27 05:15:03;;;;;;;21.02;7.80;;;9.50;99.90;;;;;;4974209;28;20454;-76
2023/10/27 05:17:29;;;;;;;18.52;9.77;;;9.50;99.90;;;;;;4978346;28;20032;-76
2023/10/27 05:19:54;;;;;;;21.27;8.15;;;9.50;99.90;;;;;;4973178;28;20038;-76
2023/10/27 05:22:20;;;;;;;12.45;5.80;;;9.50;99.90;;;;;;4974814;28;20041;-76
2023/10/27 05:24:45;;;;;;;23.65;8.57;;;9.50;99.90;;;;;;4975281;28;20050;-76
2023/10/27 05:27:11;;;;;;;18.60;8.00;;;9.50;99.90;;;;;;4961657;28;20040;-76
2023/10/27 05:29:36;;;;;;;11.73;7.20;;;9.50;99.90;;;;;;4974604;28;20491;-76
2023/10/27 05:32:02;;;;;;;23.55;8.65;;;9.60;99.90;;;;;;4973752;28;20057;-76
2023/10/27 05:34:28;;;;;;;25.17;8.43;;;9.60;99.90;;;;;;4974784;28;20037;-77
2023/10/27 05:36:53;;;;;;;16.75;8.05;;;9.60;99.90;;;;;;4980398;28;20527;-77
2023/10/27 05:39:20;;;;;;;11.25;6.25;;;9.50;99.90;;;;;;4974419;28;20065;-75
2023/10/27 05:41:46;;;;;;;9.50;5.80;;;9.50;99.90;;;;;;4961786;28;20029;-75
2023/10/27 05:44:12;;;;;;;10.02;5.50;;;9.50;99.90;;;;;;4961329;28;20039;-75
2023/10/27 05:46:38;;;;;;;13.65;4.82;;;9.60;99.90;;;;;;4991959;28;20050;-75
2023/10/27 05:49:04;;;;;;;7.88;5.55;;;9.60;99.90;;;;;;4970597;28;20038;-75
2023/10/27 05:51:30;;;;;;;14.48;6.90;;;9.60;99.90;;;;;;4974839;28;20493;-75
2023/10/27 05:53:56;;;;;;;14.45;6.18;;;9.60;99.90;;;;;;4977422;28;20129;-76
2023/10/27 05:56:21;;;;;;;12.55;5.05;;;9.60;99.90;;;;;;4973072;28;20121;-75
2023/10/27 05:58:47;;;;;;;18.25;6.10;;;9.60;99.90;;;;;;4977749;28;20117;-75
2023/10/27 06:01:12;;;;;;;13.52;5.95;;;9.60;99.90;;;;;;4977516;28;20236;-76
2023/10/27 06:03:38;;;;;;;7.95;5.75;;;9.60;99.90;;;;;;4974720;28;20096;-73
2023/10/27 06:06:04;;;;;;;11.98;4.95;;;9.60;99.90;;;;;;4972695;28;20034;-77
2023/10/27 06:08:29;;;;;;;9.73;4.03;;;9.60;99.90;;;;;;4957278;28;20026;-77
2023/10/27 06:10:55;;;;;;;6.97;3.35;;;9.60;99.90;;;;;;4975516;28;20026;-77
2023/10/27 06:13:22;;;;;;;11.57;4.57;;;9.60;99.90;;;;;;4976509;28;20118;-76
2023/10/27 06:15:47;;;;;;;18.27;7.07;;;9.60;99.90;;;;;;4970745;28;20081;-76
2023/10/27 06:18:14;;;;;;;7.05;3.75;;;9.70;99.90;;;;;;4974150;28;20030;-77
2023/10/27 06:20:39;;;;;;;16.20;5.63;;;9.70;99.90;;;;;;4974365;28;20030;-77
2023/10/27 06:23:05;;;;;;;17.83;5.70;;;9.70;99.90;;;;;;4977711;28;20080;-76
2023/10/27 06:25:30;;;;;;;10.48;5.70;;;9.70;99.90;;;;;;4974303;28;20038;-76
2023/10/27 06:27:56;;;;;;;16.05;6.28;;;9.70;99.90;;;;;;4974304;28;20439;-77
2023/10/27 06:30:23;;;;;;;9.13;3.60;;;9.60;99.90;;;;;;4971300;28;20031;-76
2023/10/27 06:32:48;;;;;;;10.48;4.25;;;9.70;99.90;;;;;;4959926;28;20729;-77
2023/10/27 06:35:14;;;;;;;14.60;6.82;;;9.70;99.90;;;;;;4955835;28;20034;-76
2023/10/27 06:37:40;;;;;;;18.77;7.45;;;9.70;99.90;;;;;;4976371;28;20039;-77
2023/10/27 06:40:06;;;;;;;19.67;8.45;;;9.70;99.90;;;;;;4973715;28;20022;-76
2023/10/27 06:42:31;;;;;;;7.28;4.13;;;9.60;99.90;;;;;;4990313;28;20108;-77
2023/10/27 06:44:57;;;;;;;19.63;6.88;;;9.60;99.90;;;;;;4970639;28;20499;-76
2023/10/27 06:47:23;;;;;;;15.00;6.85;;;9.70;99.90;;;;;;4974653;28;20034;-78
2023/10/27 06:49:48;;;;;;;23.45;7.40;;;9.70;99.90;;;;;;4957087;28;20047;-76
2023/10/27 06:52:14;;;;;;;18.20;6.90;;;9.70;99.90;;;;;;4961150;28;20054;-77
2023/10/27 06:54:40;;;;;;;22.40;8.15;;;9.70;99.90;;;;;;4974362;28;20030;-76
2023/10/27 06:57:07;;;;;;;9.75;6.63;;;9.70;99.90;;;;;;4972289;28;20052;-77
2023/10/27 06:59:32;;;;;;;27.05;7.63;;;9.70;99.90;;;;;;4971158;28;20069;-77
2023/10/27 07:01:58;;;;;;;9.70;5.30;;;9.70;99.90;;;;;;4975930;28;20766;-77
2023/10/27 07:04:23;;;;;;;12.73;7.60;;;9.70;99.90;;;;;;4971343;28;20030;-77
2023/10/27 07:06:49;;;;;;;9.93;6.50;;;9.70;99.90;;;;;;4974256;28;20149;-77
2023/10/27 07:09:15;;;;;;;20.02;7.55;;;9.70;99.90;;;;;;4972248;28;20050;-77
2023/10/27 07:11:42;;;;;;;18.10;8.20;;;9.80;99.90;;;;;;4979933;28;20030;-77
2023/10/27 07:14:10;;;;;;;15.05;7.82;;;9.80;99.90;;;;;;4973922;28;20038;-77
2023/10/27 07:16:35;;;;;;;11.88;5.35;;;9.80;99.90;;;;;;4974649;28;20038;-77
2023/10/27 07:19:01;;;;;;;15.95;6.20;;;9.80;99.90;;;;;;4971278;28;20450;-76
2023/10/27 07:21:27;;;;;;;11.18;5.68;;;9.90;99.90;;;;;;4988446;28;20352;-76
2023/10/27 07:23:53;;;;;;;15.95;6.25;;;9.90;99.90;;;;;;4973929;28;20092;-77
2023/10/27 07:26:19;;;;;;;14.52;6.05;;;9.90;99.90;;;;;;4989675;28;20576;-77
2023/10/27 07:28:44;;;;;;;13.85;5.97;;;9.90;99.90;;;;;;4970928;28;20027;-77
2023/10/27 07:31:10;;;;;;;8.48;4.40;;;9.90;99.90;;;;;;4964034;28;20045;-77
2023/10/27 07:33:38;;;;;;;7.13;4.22;;;10.00;99.90;;;;;;4975195;28;20117;-77
2023/10/27 07:36:07;;;;;;;13.65;4.57;;;10.00;99.90;;;;;;4963101;28;20440;-77
2023/10/27 07:38:34;;;;;;;12.13;4.07;;;10.00;99.90;;;;;;4963318;28;20541;-77
2023/10/27 07:41:00;;;;;;;10.23;4.45;;;10.10;99.90;;;;;;4967776;28;20021;-77
2023/10/27 07:43:25;;;;;;;8.80;3.92;;;10.10;99.90;;;;;;4957032;28;20718;-78
2023/10/27 07:45:51;;;;;;;9.60;3.83;;;10.10;99.90;;;;;;4979749;28;20041;-77
2023/10/27 07:48:17;;;;;;;10.15;3.72;;;10.10;99.90;;;;;;4974509;28;20025;-77
2023/10/27 07:50:42;;;;;;;11.60;4.28;;;10.20;99.90;;;;;;4975169;28;20038;-76
2023/10/27 07:53:08;;;;;;;8.70;4.50;;;10.20;99.90;;;;;;4976312;28;20054;-77
2023/10/27 07:55:35;;;;;;;8.00;2.97;;;10.20;99.90;;;;;;4962432;28;20088;-77
2023/10/27 07:58:00;;;;;;;8.88;3.50;;;10.20;99.90;;;;;;4991059;28;20097;-78
2023/10/27 08:00:26;;;;;;;7.68;3.67;;;10.20;99.90;;;;;;4974542;28;20470;-77
2023/10/27 08:02:52;;;;;;;7.53;3.88;;;10.30;99.90;;;;;;4974576;28;20046;-77
2023/10/27 08:05:18;;;;;;;8.77;3.03;;;10.30;99.90;;;;;;4974222;28;20077;-77
2023/10/27 08:07:44;;;;;;;6.32;3.10;;;10.40;99.90;;;;;;4977699;28;20038;-77
2023/10/27 08:10:10;;;;;;;3.50;2.67;;;10.40;99.90;;;;;;4977573;28;20043;-77
2023/10/27 08:12:35;;;;;;;6.82;3.28;;;10.40;99.90;;;;;;4977827;28;20034;-77
2023/10/27 08:15:05;;;;;;;6.03;2.70;;;10.50;99.90;;;;;;4975843;28;20042;-77
2023/10/27 08:17:32;;;;;;;9.80;3.10;;;10.50;99.90;;;;;;4980512;28;20030;-77
2023/10/27 08:19:57;;;;;;;5.47;3.20;;;10.50;99.90;;;;;;4974720;28;20582;-77
2023/10/27 08:22:23;;;;;;;5.65;3.08;;;10.60;99.90;;;;;;4983515;28;20053;-78
2023/10/27 08:24:48;;;;;;;7.30;2.97;;;10.60;99.90;;;;;;4961404;28;20031;-77
2023/10/27 08:27:14;;;;;;;5.80;2.70;;;10.70;99.90;;;;;;4962501;28;20027;-77
2023/10/27 08:29:40;;;;;;;4.13;2.58;;;10.70;99.90;;;;;;4974273;28;20030;-77
2023/10/27 08:32:05;;;;;;;5.57;2.30;;;10.70;99.90;;;;;;4963875;28;20065;-78
2023/10/27 08:34:31;;;;;;;5.60;2.75;;;10.80;99.90;;;;;;4960774;28;20040;-77
2023/10/27 08:36:57;;;;;;;5.20;2.22;;;10.80;99.90;;;;;;4958899;28;20505;-77
2023/10/27 08:39:24;;;;;;;4.53;1.92;;;10.80;99.90;;;;;;4976456;28;20034;-77
2023/10/27 08:41:49;;;;;;;4.13;2.03;;;10.80;99.90;;;;;;4958051;28;20065;-78
2023/10/27 08:44:16;;;;;;;4.05;1.65;;;10.80;99.90;;;;;;4960970;28;20069;-77
2023/10/27 08:46:42;;;;;;;4.72;1.92;;;10.80;99.90;;;;;;4975561;28;20042;-77
2023/10/27 08:49:08;;;;;;;3.63;1.67;;;10.90;99.90;;;;;;4973980;28;20040;-77
2023/10/27 08:51:34;;;;;;;3.00;1.73;;;10.90;99.90;;;;;;4942653;28;20023;-78
2023/10/27 08:53:59;;;;;;;1.65;1.50;;;11.00;99.90;;;;;;4972873;28;20042;-78
2023/10/27 08:56:25;;;;;;;3.63;1.88;;;11.00;99.90;;;;;;4976490;28;20034;-78
2023/10/27 08:58:53;;;;;;;1.70;1.33;;;11.00;99.90;;;;;;4978530;28;20026;-77
2023/10/27 09:01:19;;;;;;;2.88;1.45;;;11.00;99.90;;;;;;4962195;28;20029;-77
2023/10/27 09:04:06;;;;;;;2.67;1.60;;;11.00;99.90;;;;;;4939896;28;20574;-77
2023/10/27 09:06:32;;;;;;;3.17;1.35;;;11.00;99.90;;;;;;4975505;28;20122;-77
2023/10/27 09:08:58;;;;;;;3.03;1.35;;;11.00;99.90;;;;;;4962678;28;20454;-79
2023/10/27 09:11:24;;;;;;;3.53;1.33;;;11.10;99.90;;;;;;4953220;28;20548;-76
2023/10/27 09:13:49;;;;;;;5.78;1.42;;;11.10;99.90;;;;;;4963006;28;20749;-76
2023/10/27 09:16:25;;;;;;;2.80;1.35;;;11.10;99.90;;;;;;4974075;28;20507;-76
2023/10/27 09:18:51;;;;;;;2.35;1.20;;;11.00;99.90;;;;;;4946001;28;20028;-76
2023/10/27 09:21:29;;;;;;;1.77;1.40;;;11.10;99.90;;;;;;4974044;28;20034;-77
2023/10/27 09:23:54;;;;;;;2.35;1.40;;;11.00;99.90;;;;;;4974045;28;20398;-76
2023/10/27 09:26:20;;;;;;;2.92;1.10;;;11.00;99.90;;;;;;4963377;28;20041;-77
2023/10/27 09:28:46;;;;;;;3.13;1.25;;;10.90;99.90;;;;;;4971629;28;20045;-76
2023/10/27 09:31:11;;;;;;;2.05;1.33;;;10.90;99.90;;;;;;4971456;28;20034;-76
2023/10/27 09:33:37;;;;;;;2.25;1.52;;;11.00;99.90;;;;;;4978213;28;20462;-77
2023/10/27 09:36:03;;;;;;;1.60;1.15;;;11.00;99.90;;;;;;4962093;28;20041;-75
2023/10/27 09:38:28;;;;;;;1.95;0.90;;;11.00;99.90;;;;;;4959622;28;20027;-77
2023/10/27 09:40:56;;;;;;;3.65;1.00;;;11.10;99.90;;;;;;4975196;28;20077;-77
2023/10/27 09:43:25;;;;;;;0.80;0.70;;;11.10;99.90;;;;;;4961418;28;20030;-77
2023/10/27 09:45:54;;;;;;;1.67;1.27;;;11.10;99.90;;;;;;4971167;28;20452;-77
2023/10/27 09:48:27;;;;;;;1.88;1.20;;;11.20;99.90;;;;;;4968411;28;20033;-77
2023/10/27 09:51:04;;;;;;;1.83;0.82;;;11.20;99.90;;;;;;4952838;28;20847;-78
2023/10/27 09:53:30;;;;;;;2.78;1.17;;;11.20;99.90;;;;;;4972096;28;20545;-77
2023/10/27 09:55:57;;;;;;;5.28;0.93;;;11.30;99.90;;;;;;4958827;28;20030;-77
2023/10/27 09:58:26;;;;;;;1.80;1.02;;;11.30;99.90;;;;;;4939283;28;20277;-77
2023/10/27 10:00:52;;;;;;;1.52;0.90;;;11.30;99.90;;;;;;4957751;28;20034;-77
2023/10/27 10:03:17;;;;;;;2.40;1.10;;;11.30;99.90;;;;;;4972945;28;20035;-78
2023/10/27 10:06:11;;;;;;;3.70;1.20;;;11.30;99.90;;;;;;4958680;28;20052;-77
2023/10/27 10:08:37;;;;;;;2.08;1.05;;;11.40;99.90;;;;;;4972988;28;20026;-77
2023/10/27 10:11:18;;;;;;;1.95;1.40;;;11.40;99.90;;;;;;4977629;28;20419;-77
2023/10/27 10:13:44;;;;;;;2.22;1.00;;;11.50;99.90;;;;;;4969449;28;20149;-77
2023/10/27 10:16:10;;;;;;;0.77;0.73;;;11.60;99.90;;;;;;4976552;28;20034;-77
2023/10/27 10:18:36;;;;;;;1.73;1.05;;;11.50;99.90;;;;;;4968204;28;20080;-76
2023/10/27 10:21:02;;;;;;;3.20;1.40;;;11.60;99.90;;;;;;4991209;28;20375;-77
2023/10/27 10:23:40;;;;;;;1.38;1.00;;;11.60;99.90;;;;;;4978310;28;20038;-79
2023/10/27 10:26:06;;;;;;;1.58;0.60;;;11.70;99.90;;;;;;4988129;28;20088;-77
2023/10/27 10:28:36;;;;;;;2.08;1.30;;;11.80;99.90;;;;;;4971309;28;20034;-77
2023/10/27 10:31:07;;;;;;;2.25;1.08;;;11.80;99.90;;;;;;4978296;28;20037;-77
2023/10/27 10:33:34;;;;;;;1.98;1.27;;;11.80;99.90;;;;;;4989809;28;20704;-76
2023/10/27 10:36:15;;;;;;;0.90;0.80;;;11.80;99.90;;;;;;4960989;28;20360;-76
2023/10/27 10:38:43;;;;;;;2.72;1.30;;;11.70;99.90;;;;;;4989777;28;21045;-76
2023/10/27 10:41:11;;;;;;;3.40;1.38;;;11.70;99.90;;;;;;4613565;28;10000118;-75
2023/10/27 10:43:37;;;;;;;2.33;1.23;;;11.80;99.90;;;;;;4972308;28;20034;-77
2023/10/27 10:46:03;;;;;;;1.83;1.27;;;11.90;99.90;;;;;;4972725;28;20039;-77
2023/10/27 10:48:33;;;;;;;1.42;0.90;;;11.80;99.90;;;;;;4979040;28;20104;-75
2023/10/27 10:51:18;;;;;;;1.60;1.10;;;11.90;99.90;;;;;;4970237;28;20513;-85
2023/10/27 10:53:44;;;;;;;2.28;1.80;;;11.90;99.90;;;;;;4968550;28;20041;-84
2023/10/27 10:56:09;;;;;;;0.85;0.57;;;12.00;99.90;;;;;;4976470;28;20038;-85
2023/10/27 10:58:36;;;;;;;5.15;1.40;;;12.10;99.90;;;;;;4980661;28;20505;-84
2023/10/27 11:01:03;;;;;;;2.90;2.03;;;12.20;99.90;;;;;;4959744;28;20056;-84
2023/10/27 11:03:31;;;;;;;2.15;1.77;;;12.10;99.90;;;;;;4982497;28;20034;-85
2023/10/27 11:06:01;;;;;;;3.67;1.95;;;11.90;99.90;;;;;;4978153;28;20038;-85
2023/10/27 11:08:28;;;;;;;3.38;2.67;;;12.00;99.90;;;;;;4940406;28;20030;-82
2023/10/27 11:11:00;;;;;;;2.08;1.77;;;12.10;99.90;;;;;;4960952;28;20027;-83
2023/10/27 11:13:26;;;;;;;2.05;1.73;;;12.10;99.90;;;;;;4982356;28;20728;-82
2023/10/27 11:15:52;;;;;;;5.45;2.67;;;12.10;99.90;;;;;;4982224;28;20042;-85
2023/10/27 11:18:18;;;;;;;3.55;3.00;;;12.20;99.90;;;;;;4967955;28;20111;-82
2023/10/27 11:20:44;;;;;;;5.15;4.30;;;12.30;99.90;;;;;;4983123;28;20483;-81
2023/10/27 11:23:14;;;;;;;3.70;2.95;;;12.20;99.90;;;;;;4965586;28;20117;-83
2023/10/27 11:25:40;;;;;;;5.43;4.38;;;12.40;99.90;;;;;;4968495;28;20104;-83
2023/10/27 11:28:28;;;;;;;4.18;1.80;;;12.40;99.90;;;;;;4967500;28;20452;-84
2023/10/27 11:31:01;;;;;;;4.05;2.85;;;12.50;99.90;;;;;;4955223;28;20407;-83
2023/10/27 11:33:27;;;;;;;6.07;4.38;;;12.40;99.90;;;;;;4964767;28;20043;-84
2023/10/27 11:35:53;;;;;;;4.32;3.08;;;12.40;99.90;;;;;;4979101;28;20121;-84
2023/10/27 11:38:19;;;;;;;5.32;3.75;;;12.40;99.90;;;;;;4967819;28;20038;-83
2023/10/27 11:40:44;;;;;;;2.78;2.25;;;12.40;99.90;;;;;;4977355;28;20026;-84
2023/10/27 11:43:10;;;;;;;4.65;2.85;;;12.30;99.90;;;;;;4984133;28;20117;-84
2023/10/27 11:45:36;;;;;;;4.03;3.10;;;12.40;99.90;;;;;;4966625;28;20042;-84
2023/10/27 11:48:01;;;;;;;6.30;4.15;;;12.40;99.90;;;;;;4973519;28;20039;-82
2023/10/27 11:50:27;;;;;;;6.85;4.07;;;12.30;99.90;;;;;;4995349;28;20595;-84
2023/10/27 11:52:52;;;;;;;4.78;3.33;;;12.30;99.90;;;;;;4971659;28;20057;-80
2023/10/27 11:55:19;;;;;;;3.92;2.95;;;12.30;99.90;;;;;;4992970;28;20185;-80
2023/10/27 11:57:44;;;;;;;3.03;1.88;;;12.40;99.90;;;;;;4976584;28;20044;-84
2023/10/27 12:00:10;;;;;;;3.97;3.22;;;12.40;99.90;;;;;;4977422;28;20038;-82
2023/10/27 12:02:36;;;;;;;5.07;3.92;;;12.40;99.90;;;;;;4994458;28;20026;-81
2023/10/27 12:05:01;;;;;;;5.20;2.85;;;12.30;99.90;;;;;;4978547;28;20439;-83
2023/10/27 12:07:27;;;;;;;2.22;1.58;;;12.30;99.90;;;;;;4988400;28;20122;-83
2023/10/27 12:09:52;;;;;;;4.60;3.85;;;12.30;99.90;;;;;;4976591;28;20034;-82
2023/10/27 12:12:18;;;;;;;6.53;3.28;;;12.20;99.90;;;;;;4988614;28;20069;-81
2023/10/27 12:14:44;;;;;;;4.28;3.25;;;12.20;99.90;;;;;;4970256;28;20037;-84
2023/10/27 12:17:09;;;;;;;4.28;3.03;;;12.10;99.90;;;;;;4976284;28;20498;-83
2023/10/27 12:19:35;;;;;;;6.88;2.40;;;12.10;99.90;;;;;;4985901;28;20042;-83
2023/10/27 12:22:01;;;;;;;4.63;2.65;;;12.10;99.90;;;;;;4979349;28;20034;-83
2023/10/27 12:24:27;;;;;;;4.22;3.10;;;12.10;99.90;;;;;;4975037;28;20125;-85
2023/10/27 12:26:55;;;;;;;7.40;3.40;;;12.10;99.90;;;;;;4975111;28;20096;-83
2023/10/27 12:29:26;;;;;;;5.65;3.25;;;12.10;99.90;;;;;;4980832;28;20146;-84
2023/10/27 12:31:51;;;;;;;4.97;3.50;;;12.10;99.90;;;;;;4976995;28;20113;-80
2023/10/27 12:34:17;;;;;;;4.03;3.03;;;12.10;99.90;;;;;;4977579;28;20463;-81
2023/10/27 12:36:42;;;;;;;5.25;3.03;;;12.10;99.90;;;;;;4962226;28;20028;-81
2023/10/27 12:39:08;;;;;;;6.60;4.13;;;12.10;99.90;;;;;;4965383;28;20132;-83
2023/10/27 12:41:34;;;;;;;4.63;3.55;;;12.00;99.90;;;;;;4976849;28;20030;-81